LAN211 SCIE-SCTE
Flight info
| Callsign | LAN211 |
|---|---|
| Flight time | 0h 46m |
| Altitude | 35000 |
| Route | PANEX3N PANEX UQ809 VLD UV200 ISUDO DCT SARTO SARTO2A |
| Aircraft | A320/M-SDE3FGHIRWY/LB1 |
Departure
| Time | 2026-04-23 22:51 |
|---|---|
| Airport | Carriel Sur International Airport (SCIE) |
Arrival
| Time | 2026-04-23 23:38 |
|---|---|
| Airport | El Tepual International Airport (SCTE) |
| Time | Latitude | Longitude | Altitude | Speed | Heading |
|---|---|---|---|---|---|
| 2026-04-23 22:26 | -36.77602 | -73.05986 | 60 ft | 0 kts | 179° |
| 2026-04-23 22:41 | -36.77594 | -73.05986 | 53 ft | 4 kts | 180° |
| 2026-04-23 22:41 | -36.77567 | -73.05985 | 53 ft | 4 kts | 191° |
| 2026-04-23 22:41 | -36.77545 | -73.05974 | 57 ft | 4 kts | 238° |
| 2026-04-23 22:41 | -36.77541 | -73.05962 | 56 ft | 0 kts | 275° |
| 2026-04-23 22:43 | -36.77540 | -73.05966 | 57 ft | 2 kts | 275° |
| 2026-04-23 22:43 | -36.77538 | -73.05992 | 59 ft | 5 kts | 275° |
| 2026-04-23 22:44 | -36.77536 | -73.06043 | 60 ft | 7 kts | 273° |
| 2026-04-23 22:44 | -36.77526 | -73.06100 | 56 ft | 7 kts | 290° |
| 2026-04-23 22:44 | -36.77510 | -73.06149 | 57 ft | 6 kts | 292° |
| 2026-04-23 22:44 | -36.77490 | -73.06182 | 57 ft | 4 kts | 323° |
| 2026-04-23 22:45 | -36.77466 | -73.06188 | 57 ft | 3 kts | 1° |
| 2026-04-23 22:45 | -36.77428 | -73.06170 | 58 ft | 10 kts | 25° |
| 2026-04-23 22:45 | -36.77349 | -73.06125 | 61 ft | 13 kts | 25° |
| 2026-04-23 22:45 | -36.77268 | -73.06077 | 54 ft | 12 kts | 25° |
| 2026-04-23 22:46 | -36.77191 | -73.06033 | 55 ft | 12 kts | 25° |
| 2026-04-23 22:46 | -36.77120 | -73.05991 | 61 ft | 11 kts | 25° |
| 2026-04-23 22:46 | -36.77053 | -73.05952 | 52 ft | 10 kts | 25° |
| 2026-04-23 22:46 | -36.76991 | -73.05916 | 53 ft | 9 kts | 25° |
| 2026-04-23 22:47 | -36.76934 | -73.05882 | 53 ft | 9 kts | 25° |
| 2026-04-23 22:47 | -36.76882 | -73.05852 | 52 ft | 8 kts | 25° |
| 2026-04-23 22:47 | -36.76821 | -73.05817 | 60 ft | 14 kts | 25° |
| 2026-04-23 22:47 | -36.76708 | -73.05751 | 52 ft | 22 kts | 25° |
| 2026-04-23 22:48 | -36.76557 | -73.05664 | 56 ft | 24 kts | 24° |
| 2026-04-23 22:48 | -36.76430 | -73.05593 | 53 ft | 15 kts | 18° |
| 2026-04-23 22:48 | -36.76349 | -73.05626 | 60 ft | 11 kts | 306° |
| 2026-04-23 22:48 | -36.76321 | -73.05693 | 63 ft | 6 kts | 302° |
| 2026-04-23 22:49 | -36.76276 | -73.05718 | 63 ft | 13 kts | 353° |
| 2026-04-23 22:49 | -36.76187 | -73.05696 | 60 ft | 12 kts | 34° |
| 2026-04-23 22:49 | -36.76155 | -73.05628 | 63 ft | 8 kts | 68° |
| 2026-04-23 22:49 | -36.76113 | -73.05606 | 59 ft | 6 kts | 343° |
| 2026-04-23 22:50 | -36.76099 | -73.05635 | 59 ft | 3 kts | 274° |
| 2026-04-23 22:50 | -36.76113 | -73.05658 | 64 ft | 5 kts | 215° |
| 2026-04-23 22:50 | -36.76149 | -73.05677 | 59 ft | 0 kts | 204° |
| 2026-04-23 22:51 | -36.76161 | -73.05684 | 57 ft | 16 kts | 204° |
| 2026-04-23 22:51 | -36.76518 | -73.05891 | 66 ft | 92 kts | 205° |
| 2026-04-23 22:51 | -36.77286 | -73.06340 | 111 ft | 144 kts | 206° |
| 2026-04-23 22:51 | -36.78177 | -73.06876 | 821 ft | 143 kts | 207° |
| 2026-04-23 22:52 | -36.79120 | -73.07277 | 1530 ft | 150 kts | 184° |
| 2026-04-23 22:52 | -36.80246 | -73.07213 | 1934 ft | 173 kts | 180° |
| 2026-04-23 22:52 | -36.81530 | -73.07151 | 2304 ft | 197 kts | 180° |
| 2026-04-23 22:52 | -36.82990 | -73.07094 | 2790 ft | 222 kts | 178° |
| 2026-04-23 22:53 | -36.84608 | -73.07035 | 3465 ft | 241 kts | 178° |
| 2026-04-23 22:53 | -36.86328 | -73.06976 | 4307 ft | 252 kts | 180° |
| 2026-04-23 22:53 | -36.88113 | -73.06918 | 5198 ft | 261 kts | 181° |
| 2026-04-23 22:53 | -36.89955 | -73.06862 | 6117 ft | 268 kts | 182° |
| 2026-04-23 22:54 | -36.91856 | -73.06809 | 6950 ft | 277 kts | 181° |
| 2026-04-23 22:54 | -36.93798 | -73.06758 | 7855 ft | 282 kts | 182° |
| 2026-04-23 22:54 | -36.95775 | -73.06706 | 8802 ft | 286 kts | 183° |
| 2026-04-23 22:54 | -36.97778 | -73.06650 | 9724 ft | 290 kts | 183° |
| 2026-04-23 22:55 | -36.99819 | -73.06593 | 10515 ft | 301 kts | 183° |
| 2026-04-23 22:55 | -37.01992 | -73.06541 | 10870 ft | 324 kts | 183° |
| 2026-04-23 22:55 | -37.04293 | -73.06486 | 11484 ft | 335 kts | 183° |
| 2026-04-23 22:55 | -37.06639 | -73.06421 | 12274 ft | 340 kts | 183° |
| 2026-04-23 22:56 | -37.09018 | -73.06349 | 13110 ft | 344 kts | 183° |
| 2026-04-23 22:56 | -37.11426 | -73.06273 | 13938 ft | 348 kts | 183° |
| 2026-04-23 22:56 | -37.13866 | -73.06200 | 14652 ft | 352 kts | 183° |
| 2026-04-23 22:56 | -37.16328 | -73.06132 | 15371 ft | 356 kts | 183° |
| 2026-04-23 22:57 | -37.18815 | -73.06062 | 16096 ft | 359 kts | 183° |
| 2026-04-23 22:57 | -37.21322 | -73.05980 | 16840 ft | 362 kts | 183° |
| 2026-04-23 22:57 | -37.23851 | -73.05894 | 17555 ft | 366 kts | 183° |
| 2026-04-23 22:57 | -37.26374 | -73.05811 | 18258 ft | 370 kts | 184° |
| 2026-04-23 22:58 | -37.28957 | -73.05731 | 18900 ft | 373 kts | 184° |
| 2026-04-23 22:58 | -37.31566 | -73.05657 | 19515 ft | 377 kts | 183° |
| 2026-04-23 22:58 | -37.34200 | -73.05618 | 20113 ft | 379 kts | 187° |
| 2026-04-23 22:58 | -37.36830 | -73.05837 | 20700 ft | 381 kts | 188° |
| 2026-04-23 22:59 | -37.39489 | -73.06071 | 21292 ft | 384 kts | 189° |
| 2026-04-23 22:59 | -37.42169 | -73.06308 | 21873 ft | 388 kts | 188° |
| 2026-04-23 22:59 | -37.44875 | -73.06544 | 22464 ft | 391 kts | 189° |
| 2026-04-23 22:59 | -37.47601 | -73.06781 | 23016 ft | 395 kts | 189° |
| 2026-04-23 23:00 | -37.50361 | -73.07018 | 23580 ft | 398 kts | 189° |
| 2026-04-23 23:00 | -37.53139 | -73.07258 | 24059 ft | 402 kts | 189° |
| 2026-04-23 23:00 | -37.55938 | -73.07496 | 24527 ft | 404 kts | 188° |
| 2026-04-23 23:00 | -37.58756 | -73.07733 | 24999 ft | 407 kts | 188° |
| 2026-04-23 23:01 | -37.61588 | -73.07972 | 25473 ft | 409 kts | 189° |
| 2026-04-23 23:01 | -37.64437 | -73.08214 | 25939 ft | 411 kts | 189° |
| 2026-04-23 23:01 | -37.67302 | -73.08461 | 26394 ft | 414 kts | 189° |
| 2026-04-23 23:01 | -37.70142 | -73.08711 | 26836 ft | 416 kts | 189° |
| 2026-04-23 23:02 | -37.73037 | -73.08965 | 27276 ft | 418 kts | 189° |
| 2026-04-23 23:02 | -37.75944 | -73.09222 | 27705 ft | 420 kts | 189° |
| 2026-04-23 23:02 | -37.78878 | -73.09403 | 28138 ft | 424 kts | 186° |
| 2026-04-23 23:02 | -37.81840 | -73.09446 | 28575 ft | 428 kts | 185° |
| 2026-04-23 23:03 | -37.84828 | -73.09395 | 28985 ft | 431 kts | 184° |
| 2026-04-23 23:03 | -37.87845 | -73.09307 | 29411 ft | 433 kts | 184° |
| 2026-04-23 23:03 | -37.90866 | -73.09219 | 29828 ft | 436 kts | 184° |
| 2026-04-23 23:03 | -37.93904 | -73.09153 | 30189 ft | 438 kts | 184° |
| 2026-04-23 23:04 | -37.96957 | -73.09109 | 30511 ft | 440 kts | 185° |
| 2026-04-23 23:04 | -38.00027 | -73.09084 | 30804 ft | 442 kts | 185° |
| 2026-04-23 23:04 | -38.03103 | -73.09069 | 31110 ft | 443 kts | 185° |
| 2026-04-23 23:04 | -38.06196 | -73.09057 | 31436 ft | 445 kts | 185° |
| 2026-04-23 23:05 | -38.09303 | -73.09041 | 31749 ft | 447 kts | 185° |
| 2026-04-23 23:05 | -38.12420 | -73.09022 | 32068 ft | 449 kts | 185° |
| 2026-04-23 23:05 | -38.15541 | -73.08997 | 32513 ft | 448 kts | 185° |
| 2026-04-23 23:05 | -38.18612 | -73.08969 | 32953 ft | 446 kts | 185° |
| 2026-04-23 23:06 | -38.21716 | -73.08941 | 33390 ft | 445 kts | 185° |
| 2026-04-23 23:06 | -38.24807 | -73.08918 | 33829 ft | 444 kts | 185° |
| 2026-04-23 23:06 | -38.27893 | -73.08896 | 34257 ft | 442 kts | 185° |
| 2026-04-23 23:06 | -38.30967 | -73.08874 | 34625 ft | 441 kts | 185° |
| 2026-04-23 23:07 | -38.34038 | -73.08849 | 34971 ft | 441 kts | 185° |
| 2026-04-23 23:07 | -38.37108 | -73.08823 | 35212 ft | 442 kts | 186° |
| 2026-04-23 23:07 | -38.40166 | -73.08797 | 35257 ft | 436 kts | 186° |
| 2026-04-23 23:08 | -38.46265 | -73.08753 | 35257 ft | 446 kts | 186° |
| 2026-04-23 23:08 | -38.52573 | -73.08720 | 35254 ft | 460 kts | 185° |
| 2026-04-23 23:09 | -38.59003 | -73.08682 | 35255 ft | 463 kts | 186° |
| 2026-04-23 23:09 | -38.65413 | -73.08622 | 35249 ft | 464 kts | 185° |
| 2026-04-23 23:10 | -38.71872 | -73.08548 | 35251 ft | 464 kts | 185° |
| 2026-04-23 23:10 | -38.77245 | -73.08500 | 35252 ft | 464 kts | 186° |
| 2026-04-23 23:11 | -38.84810 | -73.08444 | 35267 ft | 465 kts | 186° |
| 2026-04-23 23:11 | -38.91275 | -73.08397 | 35262 ft | 465 kts | 186° |
| 2026-04-23 23:12 | -38.97743 | -73.08338 | 35257 ft | 465 kts | 186° |
| 2026-04-23 23:12 | -39.04216 | -73.08289 | 35268 ft | 465 kts | 186° |
| 2026-04-23 23:13 | -39.10683 | -73.08264 | 35260 ft | 465 kts | 186° |
| 2026-04-23 23:13 | -39.17152 | -73.08228 | 35254 ft | 465 kts | 186° |
| 2026-04-23 23:14 | -39.23581 | -73.08180 | 35272 ft | 465 kts | 186° |
| 2026-04-23 23:14 | -39.30061 | -73.08157 | 35259 ft | 465 kts | 186° |
| 2026-04-23 23:15 | -39.36546 | -73.08227 | 35250 ft | 465 kts | 187° |
| 2026-04-23 23:15 | -39.43017 | -73.08319 | 35238 ft | 465 kts | 187° |
| 2026-04-23 23:16 | -39.49497 | -73.08404 | 35246 ft | 465 kts | 187° |
| 2026-04-23 23:16 | -39.55976 | -73.08472 | 35232 ft | 465 kts | 187° |
| 2026-04-23 23:17 | -39.62415 | -73.08523 | 35231 ft | 465 kts | 187° |
| 2026-04-23 23:17 | -39.65634 | -73.08548 | 34790 ft | 460 kts | 187° |
| 2026-04-23 23:17 | -39.68837 | -73.08565 | 34047 ft | 460 kts | 187° |
| 2026-04-23 23:17 | -39.72030 | -73.08574 | 33356 ft | 457 kts | 187° |
| 2026-04-23 23:18 | -39.75193 | -73.08583 | 32710 ft | 452 kts | 187° |
| 2026-04-23 23:18 | -39.78325 | -73.08593 | 32093 ft | 448 kts | 187° |
| 2026-04-23 23:18 | -39.81428 | -73.08605 | 31479 ft | 444 kts | 187° |
| 2026-04-23 23:18 | -39.84502 | -73.08619 | 30865 ft | 440 kts | 187° |
| 2026-04-23 23:19 | -39.87547 | -73.08635 | 30306 ft | 436 kts | 187° |
| 2026-04-23 23:19 | -39.90567 | -73.08650 | 29615 ft | 433 kts | 187° |
| 2026-04-23 23:19 | -39.93557 | -73.08661 | 29092 ft | 426 kts | 187° |
| 2026-04-23 23:19 | -39.96514 | -73.08670 | 28507 ft | 422 kts | 187° |
| 2026-04-23 23:20 | -39.99422 | -73.08681 | 28021 ft | 415 kts | 187° |
| 2026-04-23 23:20 | -40.02287 | -73.08690 | 27543 ft | 409 kts | 187° |
| 2026-04-23 23:20 | -40.05117 | -73.08696 | 27076 ft | 403 kts | 187° |
| 2026-04-23 23:20 | -40.07897 | -73.08701 | 26620 ft | 397 kts | 187° |
| 2026-04-23 23:21 | -40.10641 | -73.08708 | 26178 ft | 391 kts | 187° |
| 2026-04-23 23:21 | -40.13350 | -73.08723 | 25698 ft | 387 kts | 187° |
| 2026-04-23 23:21 | -40.16031 | -73.08740 | 25229 ft | 383 kts | 187° |
| 2026-04-23 23:21 | -40.18688 | -73.08756 | 24746 ft | 380 kts | 187° |
| 2026-04-23 23:22 | -40.21320 | -73.08770 | 24270 ft | 377 kts | 187° |
| 2026-04-23 23:22 | -40.23900 | -73.08779 | 23783 ft | 375 kts | 187° |
| 2026-04-23 23:22 | -40.26497 | -73.08787 | 23248 ft | 372 kts | 187° |
| 2026-04-23 23:22 | -40.28239 | -73.08791 | 22930 ft | 369 kts | 187° |
| 2026-04-23 23:23 | -40.31607 | -73.08808 | 22341 ft | 363 kts | 187° |
| 2026-04-23 23:23 | -40.34130 | -73.08828 | 21869 ft | 361 kts | 187° |
| 2026-04-23 23:23 | -40.36633 | -73.08848 | 21397 ft | 358 kts | 187° |
| 2026-04-23 23:23 | -40.39109 | -73.08867 | 20964 ft | 354 kts | 187° |
| 2026-04-23 23:24 | -40.41568 | -73.08883 | 20532 ft | 352 kts | 187° |
| 2026-04-23 23:24 | -40.44008 | -73.08897 | 20089 ft | 349 kts | 187° |
| 2026-04-23 23:24 | -40.46430 | -73.08912 | 19661 ft | 347 kts | 187° |
| 2026-04-23 23:24 | -40.48833 | -73.08928 | 19227 ft | 344 kts | 187° |
| 2026-04-23 23:25 | -40.51224 | -73.08943 | 18818 ft | 342 kts | 187° |
| 2026-04-23 23:25 | -40.53570 | -73.08956 | 18409 ft | 340 kts | 187° |
| 2026-04-23 23:25 | -40.55931 | -73.08970 | 17946 ft | 338 kts | 187° |
| 2026-04-23 23:25 | -40.58270 | -73.08985 | 17541 ft | 334 kts | 188° |
| 2026-04-23 23:26 | -40.60586 | -73.08999 | 17147 ft | 330 kts | 188° |
| 2026-04-23 23:26 | -40.62872 | -73.09008 | 16756 ft | 327 kts | 188° |
| 2026-04-23 23:26 | -40.65139 | -73.09018 | 16367 ft | 325 kts | 188° |
| 2026-04-23 23:26 | -40.67387 | -73.09033 | 15984 ft | 322 kts | 188° |
| 2026-04-23 23:27 | -40.69619 | -73.09053 | 15605 ft | 320 kts | 188° |
| 2026-04-23 23:27 | -40.71092 | -73.09067 | 15353 ft | 318 kts | 188° |
| 2026-04-23 23:27 | -40.73300 | -73.09086 | 14998 ft | 316 kts | 188° |
| 2026-04-23 23:27 | -40.75499 | -73.09101 | 14608 ft | 315 kts | 188° |
| 2026-04-23 23:28 | -40.77688 | -73.09113 | 14229 ft | 314 kts | 188° |
| 2026-04-23 23:28 | -40.79869 | -73.09122 | 13829 ft | 313 kts | 188° |
| 2026-04-23 23:28 | -40.82037 | -73.09131 | 13436 ft | 310 kts | 188° |
| 2026-04-23 23:28 | -40.84186 | -73.09143 | 13059 ft | 307 kts | 188° |
| 2026-04-23 23:29 | -40.86314 | -73.09158 | 12689 ft | 305 kts | 188° |
| 2026-04-23 23:29 | -40.88432 | -73.09172 | 12314 ft | 303 kts | 188° |
| 2026-04-23 23:29 | -40.90530 | -73.09186 | 11990 ft | 299 kts | 188° |
| 2026-04-23 23:29 | -40.92588 | -73.09196 | 11662 ft | 295 kts | 188° |
| 2026-04-23 23:30 | -40.94640 | -73.09199 | 11317 ft | 294 kts | 187° |
| 2026-04-23 23:30 | -40.96695 | -73.09182 | 10896 ft | 294 kts | 187° |
| 2026-04-23 23:30 | -40.98748 | -73.09153 | 10476 ft | 295 kts | 187° |
| 2026-04-23 23:30 | -41.00810 | -73.09121 | 10033 ft | 297 kts | 186° |
| 2026-04-23 23:31 | -41.02871 | -73.09087 | 9609 ft | 296 kts | 186° |
| 2026-04-23 23:31 | -41.04923 | -73.09052 | 9204 ft | 294 kts | 186° |
| 2026-04-23 23:31 | -41.06965 | -73.09022 | 8795 ft | 292 kts | 186° |
| 2026-04-23 23:31 | -41.08965 | -73.08994 | 8398 ft | 290 kts | 185° |
| 2026-04-23 23:32 | -41.10982 | -73.08966 | 7969 ft | 289 kts | 185° |
| 2026-04-23 23:32 | -41.12991 | -73.08939 | 7551 ft | 288 kts | 185° |
| 2026-04-23 23:32 | -41.15007 | -73.08914 | 7008 ft | 292 kts | 185° |
| 2026-04-23 23:32 | -41.17046 | -73.08891 | 6522 ft | 293 kts | 184° |
| 2026-04-23 23:33 | -41.19055 | -73.08863 | 6044 ft | 282 kts | 184° |
| 2026-04-23 23:33 | -41.20973 | -73.08831 | 5614 ft | 269 kts | 185° |
| 2026-04-23 23:33 | -41.22808 | -73.08801 | 5191 ft | 258 kts | 185° |
| 2026-04-23 23:33 | -41.24571 | -73.08775 | 4785 ft | 249 kts | 185° |
| 2026-04-23 23:34 | -41.26271 | -73.08757 | 4373 ft | 240 kts | 186° |
| 2026-04-23 23:34 | -41.27905 | -73.08786 | 3997 ft | 231 kts | 187° |
| 2026-04-23 23:34 | -41.29491 | -73.08844 | 3624 ft | 225 kts | 187° |
| 2026-04-23 23:34 | -41.31043 | -73.08910 | 3253 ft | 221 kts | 187° |
| 2026-04-23 23:35 | -41.32558 | -73.08974 | 2913 ft | 213 kts | 186° |
| 2026-04-23 23:35 | -41.34002 | -73.09030 | 2529 ft | 202 kts | 186° |
| 2026-04-23 23:35 | -41.35350 | -73.09079 | 2184 ft | 187 kts | 186° |
| 2026-04-23 23:35 | -41.36611 | -73.09124 | 1875 ft | 176 kts | 188° |
| 2026-04-23 23:36 | -41.37767 | -73.09164 | 1581 ft | 163 kts | 187° |
| 2026-04-23 23:36 | -41.38876 | -73.09206 | 1296 ft | 157 kts | 187° |
| 2026-04-23 23:36 | -41.39942 | -73.09246 | 1010 ft | 149 kts | 183° |
| 2026-04-23 23:36 | -41.40964 | -73.09285 | 753 ft | 145 kts | 182° |
| 2026-04-23 23:37 | -41.41957 | -73.09329 | 516 ft | 140 kts | 180° |
| 2026-04-23 23:37 | -41.42927 | -73.09362 | 320 ft | 138 kts | 181° |
| 2026-04-23 23:37 | -41.43758 | -73.09391 | 298 ft | 96 kts | 181° |
| 2026-04-23 23:37 | -41.44305 | -73.09407 | 285 ft | 69 kts | 181° |
| 2026-04-23 23:38 | -41.44725 | -73.09425 | 298 ft | 34 kts | 182° |
| 2026-04-23 23:38 | -41.44886 | -73.09430 | 304 ft | 22 kts | 181° |
| 2026-04-23 23:38 | -41.44990 | -73.09435 | 309 ft | 9 kts | 181° |
| 2026-04-23 23:38 | -41.45038 | -73.09439 | 311 ft | 5 kts | 195° |
| 2026-04-23 23:39 | -41.45059 | -73.09461 | 312 ft | 6 kts | 230° |
| 2026-04-23 23:39 | -41.45067 | -73.09589 | 305 ft | 10 kts | 274° |
| 2026-04-23 23:39 | -41.45024 | -73.09657 | 303 ft | 11 kts | 353° |
| 2026-04-23 23:39 | -41.44944 | -73.09655 | 302 ft | 12 kts | 2° |
| 2026-04-23 23:40 | -41.44848 | -73.09651 | 303 ft | 15 kts | 2° |
| 2026-04-23 23:40 | -41.44732 | -73.09646 | 301 ft | 18 kts | 1° |
| 2026-04-23 23:40 | -41.44597 | -73.09642 | 300 ft | 21 kts | 1° |
| 2026-04-23 23:40 | -41.44445 | -73.09636 | 301 ft | 23 kts | 1° |
| 2026-04-23 23:41 | -41.44281 | -73.09631 | 301 ft | 24 kts | 1° |
| 2026-04-23 23:41 | -41.44106 | -73.09625 | 302 ft | 26 kts | 2° |
| 2026-04-23 23:41 | -41.43923 | -73.09618 | 300 ft | 27 kts | 1° |
| 2026-04-23 23:41 | -41.43735 | -73.09612 | 301 ft | 27 kts | 1° |
| 2026-04-23 23:42 | -41.43566 | -73.09605 | 303 ft | 20 kts | 1° |
| 2026-04-23 23:42 | -41.43470 | -73.09601 | 301 ft | 12 kts | 2° |
| 2026-04-23 23:42 | -41.43416 | -73.09608 | 302 ft | 6 kts | 317° |
| 2026-04-23 23:42 | -41.43411 | -73.09658 | 301 ft | 5 kts | 271° |
| 2026-04-23 23:43 | -41.43410 | -73.09704 | 301 ft | 5 kts | 271° |
| 2026-04-23 23:43 | -41.43410 | -73.09740 | 301 ft | 0 kts | 271° |
| 2026-04-23 23:44 | -41.43410 | -73.09743 | 301 ft | 0 kts | 271° |
| 2026-04-23 23:44 | -41.43409 | -73.09747 | 301 ft | 0 kts | 270° |